createdAt,value
2018-12-10T00:01:38.437Z,6.79
2018-12-10T00:04:06.444Z,6.78
2018-12-10T00:06:34.395Z,6.88
2018-12-10T00:09:03.000Z,6.86
2018-12-10T00:11:30.963Z,6.79
2018-12-10T00:13:58.899Z,6.82
2018-12-10T00:16:26.829Z,6.91
2018-12-10T00:18:54.772Z,6.84
2018-12-10T00:21:22.733Z,6.89
2018-12-10T00:23:50.680Z,6.88
2018-12-10T00:26:19.977Z,7.00
2018-12-10T00:28:47.936Z,6.95
2018-12-10T00:31:15.891Z,6.93
2018-12-10T00:33:43.934Z,6.85
2018-12-10T00:36:11.840Z,6.91
2018-12-10T00:38:39.801Z,6.97
2018-12-10T00:41:07.836Z,7.01
2018-12-10T00:43:35.788Z,7.02
2018-12-10T00:46:03.753Z,6.99
2018-12-10T00:48:31.726Z,6.95
2018-12-10T00:50:59.702Z,7.00
2018-12-10T00:53:27.669Z,7.00
2018-12-10T00:55:55.628Z,6.96
2018-12-10T00:58:23.609Z,6.94
2018-12-10T01:00:51.734Z,6.96
2018-12-10T01:03:19.782Z,6.98
2018-12-10T01:05:47.730Z,6.96
2018-12-10T01:08:15.767Z,7.03
2018-12-10T01:10:44.022Z,7.04
2018-12-10T01:13:11.953Z,7.00
2018-12-10T01:15:39.941Z,7.02
2018-12-10T01:18:07.884Z,6.99
2018-12-10T01:20:35.943Z,6.94
2018-12-10T01:23:04.692Z,7.02
2018-12-10T01:25:32.638Z,7.04
2018-12-10T01:28:00.821Z,6.97
2018-12-10T01:30:28.803Z,7.04
2018-12-10T01:32:56.737Z,7.08
2018-12-10T01:35:25.850Z,7.04
2018-12-10T01:37:53.893Z,6.96
2018-12-10T01:40:21.899Z,7.02
2018-12-10T01:42:49.831Z,6.90
2018-12-10T01:45:17.818Z,6.97
2018-12-10T01:47:45.820Z,6.91
2018-12-10T01:50:13.793Z,6.90
2018-12-10T01:52:41.834Z,6.96
2018-12-10T01:55:09.865Z,6.91
2018-12-10T01:57:37.832Z,6.97
2018-12-10T02:00:07.158Z,6.94
2018-12-10T02:02:35.143Z,6.98
2018-12-10T02:05:03.129Z,6.98
2018-12-10T02:07:31.198Z,6.95
2018-12-10T02:09:59.139Z,6.88
2018-12-10T02:12:27.109Z,6.91
2018-12-10T02:14:55.071Z,6.89
2018-12-10T02:17:23.571Z,6.93
2018-12-10T02:19:51.564Z,6.93
2018-12-10T02:22:19.794Z,6.95
2018-12-10T02:24:47.758Z,6.86
2018-12-10T02:27:16.897Z,6.82
2018-12-10T02:29:44.869Z,6.89
2018-12-10T02:32:12.960Z,6.89
2018-12-10T02:34:40.905Z,6.96
2018-12-10T02:37:08.918Z,6.99
2018-12-10T02:39:38.002Z,7.03
2018-12-10T02:42:05.962Z,6.99
2018-12-10T02:44:33.943Z,6.88
2018-12-10T02:47:02.037Z,6.90
2018-12-10T02:49:29.974Z,6.89
2018-12-10T02:51:58.024Z,6.84
2018-12-10T02:54:26.097Z,6.81
2018-12-10T02:56:54.196Z,6.86
2018-12-10T02:59:22.274Z,6.98
2018-12-10T03:01:50.649Z,6.89
2018-12-10T03:04:18.626Z,6.83
2018-12-10T03:06:47.399Z,6.83
2018-12-10T03:09:15.337Z,6.81
2018-12-10T03:11:43.499Z,6.81
2018-12-10T03:14:11.495Z,6.75
2018-12-10T03:16:39.463Z,6.78
2018-12-10T03:19:07.435Z,6.80
2018-12-10T03:21:35.420Z,6.76
2018-12-10T03:24:03.928Z,6.72
2018-12-10T03:26:31.926Z,6.78
2018-12-10T03:28:59.869Z,6.85
2018-12-10T03:31:27.963Z,6.95
2018-12-10T03:33:55.917Z,6.87
2018-12-10T03:36:23.944Z,6.86
2018-12-10T03:38:51.876Z,6.87
2018-12-10T03:41:19.826Z,6.85
2018-12-10T03:43:47.802Z,6.82
2018-12-10T03:46:15.783Z,6.78
2018-12-10T03:48:44.727Z,6.76
2018-12-10T03:51:12.773Z,6.79
2018-12-10T03:53:40.701Z,6.84
2018-12-10T03:56:08.745Z,6.83
2018-12-10T03:58:36.691Z,6.86
2018-12-10T04:01:04.655Z,6.81
2018-12-10T04:03:33.302Z,6.79
2018-12-10T04:06:02.193Z,6.79
2018-12-10T04:08:30.126Z,6.87
2018-12-10T04:10:58.193Z,6.80
2018-12-10T04:13:26.196Z,6.78
2018-12-10T04:15:54.157Z,6.74
2018-12-10T04:18:22.429Z,6.69
2018-12-10T04:20:50.439Z,6.76
2018-12-10T04:23:18.406Z,6.73
2018-12-10T04:25:46.435Z,6.69
2018-12-10T04:28:16.613Z,6.78
2018-12-10T04:30:44.602Z,6.72
2018-12-10T04:33:12.625Z,6.69
2018-12-10T04:35:40.600Z,6.64
2018-12-10T04:38:08.574Z,6.93
2018-12-10T04:40:36.528Z,7.17
2018-12-10T04:43:04.921Z,6.72
2018-12-10T04:45:33.046Z,6.72
2018-12-10T04:48:01.220Z,6.60
2018-12-10T04:50:29.318Z,6.63
2018-12-10T04:52:57.486Z,6.52
2018-12-10T04:55:25.500Z,6.60
2018-12-10T04:57:53.518Z,6.57
2018-12-10T05:00:21.629Z,6.52
2018-12-10T05:02:49.584Z,6.52
2018-12-10T05:05:17.609Z,6.60
2018-12-10T05:07:45.580Z,6.43
2018-12-10T05:10:13.582Z,6.43
2018-12-10T05:12:41.564Z,6.29
2018-12-10T05:15:09.618Z,6.30
2018-12-10T05:17:37.557Z,6.19
2018-12-10T05:20:05.797Z,6.26
2018-12-10T05:22:33.791Z,6.24
2018-12-10T05:25:01.737Z,6.07
2018-12-10T05:27:29.781Z,6.09
2018-12-10T05:29:57.725Z,6.09
2018-12-10T05:32:25.666Z,6.07
2018-12-10T05:34:53.676Z,6.01
2018-12-10T05:37:21.683Z,6.04
2018-12-10T05:39:49.627Z,5.96
2018-12-10T05:42:17.583Z,5.93
2018-12-10T05:44:45.525Z,5.87
2018-12-10T05:47:13.486Z,5.77
2018-12-10T05:49:41.455Z,5.82
2018-12-10T05:52:09.398Z,5.83
2018-12-10T05:54:37.383Z,5.86
2018-12-10T05:57:05.371Z,5.96
2018-12-10T05:59:33.332Z,5.92
2018-12-10T06:02:01.299Z,5.90
2018-12-10T06:04:29.246Z,5.75
2018-12-10T06:06:57.725Z,5.57
2018-12-10T06:09:25.650Z,5.49
2018-12-10T06:11:53.603Z,5.51
2018-12-10T06:14:21.565Z,5.36
2018-12-10T06:16:49.550Z,5.45
2018-12-10T06:19:17.599Z,5.52
2018-12-10T06:21:45.967Z,5.50
2018-12-10T06:24:13.978Z,5.56
2018-12-10T06:26:41.932Z,5.61
2018-12-10T06:29:09.873Z,5.57
2018-12-10T06:31:37.849Z,5.62
2018-12-10T06:34:05.807Z,5.67
2018-12-10T06:36:33.782Z,5.68
2018-12-10T06:39:01.722Z,5.72
2018-12-10T06:41:30.626Z,5.78
2018-12-10T06:43:58.759Z,6.25
2018-12-10T06:46:26.711Z,6.30
2018-12-10T06:48:54.671Z,6.07
2018-12-10T06:51:22.622Z,6.02
2018-12-10T06:53:50.882Z,6.00
2018-12-10T06:56:18.839Z,6.01
2018-12-10T06:58:46.801Z,6.00
2018-12-10T07:01:14.860Z,5.98
2018-12-10T07:03:45.130Z,6.06
2018-12-10T07:06:13.122Z,6.06
2018-12-10T07:08:41.136Z,6.10
2018-12-10T07:11:09.082Z,6.07
2018-12-10T07:13:37.630Z,6.15
2018-12-10T07:16:05.666Z,6.24
2018-12-10T07:18:33.615Z,6.29
2018-12-10T07:21:01.657Z,6.24
2018-12-10T07:23:29.965Z,6.34
2018-12-10T07:25:58.227Z,6.23
2018-12-10T07:28:26.192Z,6.28
2018-12-10T07:30:54.179Z,6.29
2018-12-10T07:33:22.112Z,6.20
2018-12-10T07:35:50.236Z,6.13
2018-12-10T07:38:18.517Z,6.28
2018-12-10T07:40:46.505Z,6.24
2018-12-10T07:43:14.607Z,6.14
2018-12-10T07:45:42.568Z,6.15
2018-12-10T07:48:11.299Z,6.23
2018-12-10T07:50:39.454Z,6.23
2018-12-10T07:53:07.478Z,6.23
2018-12-10T07:55:35.427Z,6.12
2018-12-10T07:58:03.391Z,6.11
2018-12-10T08:00:31.329Z,6.16
2018-12-10T08:02:59.622Z,6.09
2018-12-10T08:05:28.424Z,6.08
2018-12-10T08:07:56.382Z,6.07
2018-12-10T08:10:24.402Z,6.10
2018-12-10T08:12:52.395Z,6.10
2018-12-10T08:15:20.399Z,6.09
2018-12-10T08:17:48.363Z,6.15
2018-12-10T08:20:16.358Z,6.07
2018-12-10T08:22:44.288Z,6.07
2018-12-10T08:25:12.270Z,6.14
2018-12-10T08:27:40.223Z,6.16
2018-12-10T08:30:08.266Z,6.12
2018-12-10T08:32:36.662Z,6.22
2018-12-10T08:35:04.671Z,6.14
2018-12-10T08:37:32.603Z,6.23
2018-12-10T08:40:01.022Z,6.29
2018-12-10T08:42:29.094Z,6.22
2018-12-10T08:44:57.134Z,6.38
2018-12-10T08:47:25.093Z,6.36
2018-12-10T08:49:53.041Z,6.22
2018-12-10T08:52:20.993Z,6.28
2018-12-10T08:54:48.952Z,6.33
2018-12-10T08:57:17.008Z,6.31
2018-12-10T08:59:45.285Z,6.58
2018-12-10T09:02:13.213Z,6.37
2018-12-10T09:04:41.206Z,6.31
2018-12-10T09:07:09.171Z,6.30
2018-12-10T09:09:37.298Z,6.35
2018-12-10T09:12:05.358Z,6.38
2018-12-10T09:14:33.313Z,6.52
2018-12-10T09:17:01.250Z,6.44
2018-12-10T09:19:29.981Z,6.45
2018-12-10T09:21:57.930Z,6.40
2018-12-10T09:24:25.905Z,6.35
2018-12-10T09:26:55.015Z,6.37
2018-12-10T09:29:23.933Z,6.33
2018-12-10T09:31:51.973Z,6.36
2018-12-10T09:34:20.721Z,6.28
2018-12-10T09:36:48.713Z,6.37
2018-12-10T09:39:18.091Z,6.41
2018-12-10T09:41:46.047Z,6.39
2018-12-10T09:44:13.994Z,6.35
2018-12-10T09:46:41.942Z,6.44
2018-12-10T09:49:10.351Z,6.45
2018-12-10T09:51:38.545Z,6.46
2018-12-10T09:54:06.547Z,6.63
2018-12-10T09:56:34.473Z,6.54
2018-12-10T09:59:03.516Z,6.55
2018-12-10T10:01:31.653Z,6.61
2018-12-10T10:03:59.610Z,6.65
2018-12-10T10:06:27.753Z,6.56
2018-12-10T10:08:55.718Z,6.44
2018-12-10T10:11:23.682Z,6.55
2018-12-10T10:13:51.657Z,6.58
2018-12-10T10:16:19.661Z,6.64
2018-12-10T10:18:47.599Z,6.65
2018-12-10T10:21:15.651Z,6.66
2018-12-10T10:23:43.606Z,6.72
2018-12-10T10:26:11.539Z,6.66
2018-12-10T10:28:39.545Z,6.73
2018-12-10T10:31:08.048Z,6.72
2018-12-10T10:33:35.990Z,6.67
2018-12-10T10:36:03.964Z,6.79
2018-12-10T10:38:31.969Z,6.78
2018-12-10T10:40:59.946Z,6.80
2018-12-10T10:43:27.942Z,6.66
2018-12-10T10:45:56.088Z,6.60
2018-12-10T10:48:24.021Z,6.70
2018-12-10T10:50:52.029Z,6.69
2018-12-10T10:53:19.975Z,6.71
2018-12-10T10:55:48.868Z,6.68
2018-12-10T10:58:16.970Z,6.72
2018-12-10T11:03:48.137Z,6.67
2018-12-10T11:06:16.766Z,6.70
2018-12-10T11:08:44.693Z,6.76
2018-12-10T11:11:12.677Z,6.66
2018-12-10T11:13:40.665Z,6.73
2018-12-10T11:16:09.002Z,6.84
2018-12-10T11:18:37.007Z,6.83
2018-12-10T11:21:05.292Z,6.83
2018-12-10T11:23:33.238Z,6.79
2018-12-10T11:26:01.201Z,6.72
2018-12-10T11:28:29.186Z,6.89
2018-12-10T11:30:57.257Z,6.99
2018-12-10T11:33:25.166Z,6.89
2018-12-10T11:35:53.128Z,6.89
2018-12-10T11:38:21.121Z,6.88
2018-12-10T11:40:49.089Z,6.88
2018-12-10T11:43:17.072Z,6.90
2018-12-10T11:45:45.087Z,6.85
2018-12-10T11:48:13.175Z,6.87
2018-12-10T11:50:41.305Z,6.85
2018-12-10T11:53:09.262Z,6.83
2018-12-10T11:55:37.257Z,6.82
2018-12-10T11:58:05.211Z,6.87
2018-12-10T12:00:33.181Z,6.87
2018-12-10T12:03:01.146Z,7.02
2018-12-10T12:05:29.101Z,6.98
2018-12-10T12:07:57.098Z,6.90
2018-12-10T12:10:25.043Z,6.96
2018-12-10T12:12:52.983Z,6.93
2018-12-10T12:15:20.948Z,6.86
2018-12-10T12:17:48.898Z,6.91
2018-12-10T12:20:16.890Z,6.98
2018-12-10T12:22:46.250Z,6.98
2018-12-10T12:25:14.327Z,6.97
2018-12-10T12:27:42.360Z,6.85
2018-12-10T12:30:10.374Z,6.85
2018-12-10T12:32:38.327Z,6.87
2018-12-10T12:35:06.334Z,6.64
2018-12-10T12:37:34.299Z,6.75
2018-12-10T12:40:03.236Z,6.71
2018-12-10T12:42:31.347Z,6.82
2018-12-10T12:44:59.258Z,6.79
2018-12-10T12:47:27.345Z,6.85
2018-12-10T12:49:55.306Z,6.65
2018-12-10T12:52:23.266Z,6.56
2018-12-10T12:54:51.193Z,6.59
2018-12-10T12:57:19.150Z,6.40
2018-12-10T12:59:47.084Z,6.40
2018-12-10T13:02:15.046Z,6.33
2018-12-10T13:04:43.668Z,6.36
2018-12-10T13:07:11.672Z,6.31
2018-12-10T13:09:39.670Z,6.35
2018-12-10T13:12:07.687Z,6.39
2018-12-10T13:14:35.677Z,6.45
2018-12-10T13:17:03.657Z,6.52
2018-12-10T13:19:31.652Z,6.53
2018-12-10T13:21:59.926Z,6.50
2018-12-10T13:24:27.891Z,6.48
2018-12-10T13:26:55.861Z,6.56
2018-12-10T13:29:31.055Z,6.40
2018-12-10T13:31:53.753Z,6.44
2018-12-10T13:34:21.713Z,6.39
2018-12-10T13:36:49.661Z,6.39
2018-12-10T13:39:17.612Z,6.38
2018-12-10T13:41:45.586Z,6.43
2018-12-10T13:44:13.658Z,6.36
2018-12-10T13:46:41.646Z,6.41
2018-12-10T13:49:09.584Z,6.31
2018-12-10T13:51:37.567Z,6.38
2018-12-10T13:54:06.200Z,6.42
2018-12-10T13:56:35.055Z,6.30
2018-12-10T13:59:04.450Z,6.33
2018-12-10T14:01:32.437Z,6.31
2018-12-10T14:04:02.017Z,6.35
2018-12-10T14:06:29.993Z,6.28
2018-12-10T14:08:57.945Z,6.30
2018-12-10T14:11:25.904Z,6.34
2018-12-10T14:13:54.627Z,6.43
2018-12-10T14:16:23.021Z,6.37
2018-12-10T14:18:51.605Z,6.35
2018-12-10T14:21:19.783Z,6.38
2018-12-10T14:23:47.937Z,6.46
2018-12-10T14:26:16.588Z,6.53
2018-12-10T14:28:45.074Z,6.50
2018-12-10T14:31:13.064Z,6.61
2018-12-10T14:33:41.017Z,6.49
2018-12-10T14:36:09.226Z,6.48
2018-12-10T14:38:38.600Z,6.37
2018-12-10T14:41:07.373Z,6.44
2018-12-10T14:43:35.604Z,6.54
2018-12-10T14:46:03.925Z,6.38
2018-12-10T14:48:31.923Z,6.20
2018-12-10T14:50:59.940Z,6.12
2018-12-10T14:53:27.883Z,6.05
2018-12-10T14:55:56.247Z,6.06
2018-12-10T14:58:24.185Z,6.06
2018-12-10T15:00:52.519Z,6.17
2018-12-10T15:03:20.503Z,6.14
2018-12-10T15:05:48.464Z,6.10
2018-12-10T15:08:16.506Z,6.23
2018-12-10T15:10:44.501Z,6.33
2018-12-10T15:13:12.528Z,6.35
2018-12-10T15:15:40.457Z,6.25
2018-12-10T15:18:08.454Z,6.26
2018-12-10T15:20:36.434Z,6.34
2018-12-10T15:23:04.374Z,6.33
2018-12-10T15:25:32.338Z,6.40
2018-12-10T15:28:00.273Z,6.37
2018-12-10T15:30:28.369Z,6.36
2018-12-10T15:32:56.285Z,6.37
2018-12-10T15:35:24.888Z,6.38
2018-12-10T15:37:52.850Z,6.31
2018-12-10T15:40:20.816Z,6.30
2018-12-10T15:42:48.865Z,6.38
2018-12-10T15:45:17.089Z,6.24
2018-12-10T15:47:45.142Z,6.19
2018-12-10T15:50:13.127Z,6.09
2018-12-10T15:52:41.098Z,6.11
2018-12-10T15:55:09.129Z,6.07
2018-12-10T15:57:37.073Z,6.12
2018-12-10T16:00:07.697Z,6.09
2018-12-10T16:02:35.672Z,6.05
2018-12-10T16:05:04.601Z,6.01
2018-12-10T16:07:33.065Z,5.98
2018-12-10T16:10:01.105Z,6.10
2018-12-10T16:12:29.032Z,6.19
2018-12-10T16:14:57.029Z,6.26
2018-12-10T16:17:25.449Z,6.31
2018-12-10T16:19:53.385Z,6.35
2018-12-10T16:22:21.381Z,6.26
2018-12-10T16:24:49.489Z,6.30
2018-12-10T16:27:17.726Z,6.25
2018-12-10T16:29:45.781Z,6.27
2018-12-10T16:32:13.761Z,6.21
2018-12-10T16:34:41.740Z,6.19
2018-12-10T16:37:09.718Z,6.19
2018-12-10T16:39:37.756Z,6.20
2018-12-10T16:42:06.021Z,6.21
2018-12-10T16:44:34.126Z,6.27
2018-12-10T16:47:02.332Z,6.23
2018-12-10T16:49:31.072Z,6.26
2018-12-10T16:51:59.243Z,6.28
2018-12-10T16:54:27.950Z,6.36
2018-12-10T16:56:55.957Z,6.38
2018-12-10T16:59:23.952Z,6.44
2018-12-10T17:01:52.082Z,6.52
2018-12-10T17:04:20.527Z,6.48
2018-12-10T17:06:49.209Z,6.42
2018-12-10T17:09:17.642Z,6.65
2018-12-10T17:11:45.682Z,6.69
2018-12-10T17:14:13.988Z,7.02
2018-12-10T17:16:41.947Z,6.96
2018-12-10T17:19:09.953Z,7.77
2018-12-10T17:21:37.968Z,7.18
2018-12-10T17:24:06.099Z,7.11
2018-12-10T17:26:34.468Z,6.96
2018-12-10T17:29:02.460Z,6.95
2018-12-10T17:31:30.409Z,6.89
2018-12-10T17:33:59.219Z,6.98
2018-12-10T17:36:27.304Z,6.90
2018-12-10T17:38:55.245Z,6.93
2018-12-10T17:41:24.256Z,7.00
2018-12-10T17:43:53.074Z,6.96
2018-12-10T17:46:21.032Z,6.96
2018-12-10T17:48:48.998Z,6.83
2018-12-10T17:51:17.021Z,6.65
2018-12-10T17:53:45.235Z,6.61
2018-12-10T17:56:13.285Z,6.58
2018-12-10T17:58:41.674Z,6.50
2018-12-10T18:01:09.779Z,6.54
2018-12-10T18:03:37.724Z,6.54
2018-12-10T18:06:05.689Z,6.60
2018-12-10T18:08:33.637Z,6.55
2018-12-10T18:11:01.622Z,6.49
2018-12-10T18:13:29.731Z,6.59
2018-12-10T18:15:57.674Z,6.67
2018-12-10T18:18:25.674Z,6.66
2018-12-10T18:20:53.697Z,6.57
2018-12-10T18:23:21.701Z,6.56
2018-12-10T18:25:49.644Z,6.66
2018-12-10T18:28:17.679Z,6.61
2018-12-10T18:30:45.903Z,6.58
2018-12-10T18:33:14.653Z,6.68
2018-12-10T18:35:42.871Z,6.74
2018-12-10T18:38:11.477Z,6.70
2018-12-10T18:40:39.554Z,6.61
2018-12-10T18:43:08.576Z,6.64
2018-12-10T18:45:38.317Z,6.65
2018-12-10T18:48:06.362Z,6.68
2018-12-10T18:50:34.449Z,6.61
2018-12-10T18:53:02.470Z,6.53
2018-12-10T18:55:31.453Z,6.57
2018-12-10T18:57:59.411Z,6.56
2018-12-10T19:00:27.625Z,6.53
2018-12-10T19:02:55.631Z,6.49
2018-12-10T19:05:25.547Z,6.56
2018-12-10T19:07:53.737Z,6.51
2018-12-10T19:10:21.689Z,6.58
2018-12-10T19:12:49.740Z,6.52
2018-12-10T19:15:17.743Z,6.43
2018-12-10T19:17:45.883Z,6.49
2018-12-10T19:20:13.968Z,6.46
2018-12-10T19:22:41.931Z,6.44
2018-12-10T19:25:09.933Z,6.46
2018-12-10T19:27:38.160Z,6.40
2018-12-10T19:30:06.987Z,6.41
2018-12-10T19:32:34.969Z,6.35
2018-12-10T19:35:03.127Z,6.30
2018-12-10T19:37:31.112Z,6.26
2018-12-10T19:39:59.215Z,6.20
2018-12-10T19:42:27.573Z,6.22
2018-12-10T19:44:55.769Z,6.14
2018-12-10T19:47:23.779Z,6.28
2018-12-10T19:49:52.360Z,6.24
2018-12-10T19:52:21.007Z,6.23
2018-12-10T19:54:49.593Z,6.20
2018-12-10T19:57:17.549Z,6.25
2018-12-10T19:59:45.605Z,6.13
2018-12-10T20:02:14.067Z,6.17
2018-12-10T20:04:42.030Z,6.17
2018-12-10T20:07:10.049Z,6.22
2018-12-10T20:09:38.095Z,6.23
2018-12-10T20:12:06.404Z,6.16
2018-12-10T20:14:34.673Z,6.24
2018-12-10T20:17:03.265Z,6.14
2018-12-10T20:19:31.213Z,6.27
2018-12-10T20:21:59.191Z,6.21
2018-12-10T20:24:27.152Z,6.20
2018-12-10T20:26:55.313Z,6.20
2018-12-10T20:29:23.792Z,6.23
2018-12-10T20:31:51.774Z,6.28
2018-12-10T20:34:20.095Z,6.33
2018-12-10T20:36:48.243Z,6.29
2018-12-10T20:39:16.313Z,6.34
2018-12-10T20:41:44.352Z,6.34
2018-12-10T20:44:12.329Z,6.41
2018-12-10T20:46:40.274Z,6.40
2018-12-10T20:49:08.333Z,6.35
2018-12-10T20:51:36.446Z,6.36
2018-12-10T20:54:04.890Z,6.35
2018-12-10T20:56:32.823Z,6.40
2018-12-10T20:59:01.678Z,6.37
2018-12-10T21:01:29.633Z,6.34
2018-12-10T21:03:57.740Z,6.39
2018-12-10T21:06:31.484Z,6.30
2018-12-10T21:08:59.869Z,6.40
2018-12-10T21:11:27.957Z,6.39
2018-12-10T21:13:55.924Z,6.39
2018-12-10T21:16:24.219Z,6.41
2018-12-10T21:18:52.230Z,6.51
2018-12-10T21:21:20.336Z,6.49
2018-12-10T21:23:48.715Z,6.48
2018-12-10T21:26:16.818Z,6.42
2018-12-10T21:28:45.652Z,7.47
2018-12-10T21:31:14.097Z,7.53
2018-12-10T21:33:42.132Z,7.64
2018-12-10T21:36:10.760Z,7.70
2018-12-10T21:38:38.824Z,6.99
2018-12-10T21:41:06.832Z,7.19
2018-12-10T21:43:34.857Z,6.98
2018-12-10T21:46:02.829Z,6.80
2018-12-10T21:48:30.840Z,6.71
2018-12-10T21:50:58.940Z,6.73
2018-12-10T21:53:27.372Z,6.64
2018-12-10T21:55:55.339Z,6.61
2018-12-10T21:58:23.498Z,6.57
2018-12-10T22:00:51.556Z,6.55
2018-12-10T22:03:19.935Z,6.58
2018-12-10T22:05:47.972Z,6.52
2018-12-10T22:08:16.216Z,6.57
2018-12-10T22:10:44.181Z,6.48
2018-12-10T22:13:13.360Z,6.52
2018-12-10T22:15:42.231Z,6.48
2018-12-10T22:18:11.738Z,6.48
2018-12-10T22:20:42.698Z,6.46
2018-12-10T22:23:11.301Z,6.48
2018-12-10T22:25:40.231Z,6.44
2018-12-10T22:28:08.279Z,6.43
2018-12-10T22:30:36.754Z,6.44
2018-12-10T22:33:04.871Z,6.41
2018-12-10T22:35:32.800Z,6.45
2018-12-10T22:38:01.041Z,6.43
2018-12-10T22:40:29.996Z,6.40
2018-12-10T22:42:58.744Z,6.42
2018-12-10T22:45:26.957Z,6.40
2018-12-10T22:47:56.228Z,6.43
2018-12-10T22:50:24.444Z,6.36
2018-12-10T22:52:52.394Z,6.39
2018-12-10T22:55:20.441Z,6.35
2018-12-10T22:57:48.582Z,6.38
2018-12-10T23:00:16.723Z,6.41
2018-12-10T23:02:44.747Z,6.41
2018-12-10T23:05:12.949Z,6.43
2018-12-10T23:07:40.925Z,6.42
2018-12-10T23:10:09.167Z,6.40
2018-12-10T23:12:37.233Z,6.40
2018-12-10T23:15:05.307Z,6.49
2018-12-10T23:17:33.263Z,6.50
2018-12-10T23:20:01.203Z,6.54
2018-12-10T23:22:29.680Z,6.59
2018-12-10T23:24:57.629Z,6.60
2018-12-10T23:27:25.581Z,6.66
2018-12-10T23:29:53.543Z,6.67
2018-12-10T23:32:21.505Z,6.67
2018-12-10T23:34:49.546Z,6.67
2018-12-10T23:37:17.656Z,6.71
2018-12-10T23:39:45.590Z,6.76
2018-12-10T23:42:13.697Z,6.74
2018-12-10T23:44:47.691Z,6.74
2018-12-10T23:47:15.823Z,6.65
2018-12-10T23:49:44.765Z,6.71
2018-12-10T23:52:13.522Z,6.70
2018-12-10T23:54:41.520Z,6.69
2018-12-10T23:57:10.490Z,6.73
2018-12-10T23:59:38.624Z,6.68
